createdAt,value
2023-04-12T00:00:52.790Z,100611.41
2023-04-12T00:03:21.382Z,100611.41
2023-04-12T00:05:54.597Z,100612.97
2023-04-12T00:08:24.791Z,100608.44
2023-04-12T00:10:51.811Z,100606.75
2023-04-12T00:13:19.658Z,100599.16
2023-04-12T00:15:46.590Z,100600.41
2023-04-12T00:18:13.423Z,100603.59
2023-04-12T00:20:41.491Z,100598.94
2023-04-12T00:23:09.798Z,100601.16
2023-04-12T00:25:38.569Z,100599.56
2023-04-12T00:28:06.317Z,100598.94
2023-04-12T00:30:34.179Z,100596.16
2023-04-12T00:33:00.655Z,100590.66
2023-04-12T00:35:27.295Z,100594.91
2023-04-12T00:37:54.726Z,100592.16
2023-04-12T00:40:21.412Z,100585.78
2023-04-12T00:42:47.994Z,100593.00
2023-04-12T00:45:14.582Z,100590.34
2023-04-12T00:47:43.015Z,100590.78
2023-04-12T00:50:10.856Z,100594.47
2023-04-12T00:52:37.760Z,100589.63
2023-04-12T00:55:07.249Z,100592.53
2023-04-12T00:57:38.303Z,100588.63
2023-04-12T01:00:13.066Z,100590.19
2023-04-12T01:02:42.828Z,100594.72
2023-04-12T01:09:53.025Z,100582.34
2023-04-12T01:12:33.308Z,100573.06
2023-04-12T01:15:09.790Z,100577.84
2023-04-12T01:17:44.170Z,100563.09
2023-04-12T01:20:22.681Z,100560.97
2023-04-12T01:22:59.175Z,100556.75
2023-04-12T01:25:52.510Z,100548.59
2023-04-12T01:28:24.045Z,100553.47
2023-04-12T01:30:51.420Z,100561.72
2023-04-12T01:33:18.862Z,100556.88
2023-04-12T01:35:46.992Z,100551.16
2023-04-12T01:38:13.929Z,100555.81
2023-04-12T01:40:42.606Z,100554.56
2023-04-12T01:43:10.153Z,100546.72
2023-04-12T01:45:37.542Z,100547.69
2023-04-12T01:48:10.354Z,100542.78
2023-04-12T01:50:44.552Z,100547.63
2023-04-12T01:53:18.361Z,100547.44
2023-04-12T01:55:48.345Z,100547.31
2023-04-12T01:58:22.071Z,100544.16
2023-04-12T02:00:49.943Z,100549.84
2023-04-12T02:03:18.394Z,100547.38
2023-04-12T02:05:45.645Z,100553.09
2023-04-12T02:08:12.309Z,100547.56
2023-04-12T02:10:40.446Z,100537.47
2023-04-12T02:13:06.975Z,100539.78
2023-04-12T02:15:34.184Z,100526.03
2023-04-12T02:18:01.628Z,100526.91
2023-04-12T02:20:28.266Z,100529.78
2023-04-12T02:22:54.907Z,100523.69
2023-04-12T02:25:21.497Z,100515.56
2023-04-12T02:27:48.992Z,100514.47
2023-04-12T02:30:15.861Z,100518.63
2023-04-12T02:32:45.311Z,100518.16
2023-04-12T02:35:12.829Z,100513.66
2023-04-12T02:37:39.790Z,100508.38
2023-04-12T02:40:07.144Z,100510.25
2023-04-12T02:42:33.556Z,100501.69
2023-04-12T02:45:00.114Z,100497.41
2023-04-12T02:47:29.109Z,100494.72
2023-04-12T02:49:56.254Z,100484.22
2023-04-12T02:52:22.772Z,100487.81
2023-04-12T02:54:50.342Z,100489.00
2023-04-12T02:57:16.850Z,100488.59
2023-04-12T02:59:43.450Z,100479.03
2023-04-12T03:02:10.088Z,100485.53
2023-04-12T03:04:39.914Z,100478.34
2023-04-12T03:07:07.174Z,100472.91
2023-04-12T03:09:34.767Z,100466.09
2023-04-12T03:12:02.214Z,100461.56
2023-04-12T03:14:28.936Z,100459.91
2023-04-12T03:16:56.420Z,100457.28
2023-04-12T03:19:22.869Z,100463.03
2023-04-12T03:21:49.362Z,100463.03
2023-04-12T03:24:15.797Z,100454.28
2023-04-12T03:26:43.794Z,100448.63
2023-04-12T03:29:11.306Z,100449.31
2023-04-12T03:31:38.019Z,100449.44
2023-04-12T03:34:04.693Z,100442.34
2023-04-12T03:36:31.834Z,100435.75
2023-04-12T03:38:58.415Z,100423.91
2023-04-12T03:41:25.574Z,100420.00
2023-04-12T03:43:52.291Z,100415.84
2023-04-12T03:46:18.981Z,100412.03
2023-04-12T03:48:45.928Z,100409.63
2023-04-12T03:51:12.563Z,100413.94
2023-04-12T03:53:39.592Z,100416.22
2023-04-12T03:56:06.529Z,100407.41
2023-04-12T03:58:34.133Z,100403.44
2023-04-12T04:01:06.081Z,100399.69
2023-04-12T04:03:34.927Z,100398.44
2023-04-12T04:06:02.400Z,100389.91
2023-04-12T04:08:29.537Z,100392.47
2023-04-12T04:10:57.167Z,100378.44
2023-04-12T04:13:23.905Z,100388.06
2023-04-12T04:15:58.887Z,100393.72
2023-04-12T04:18:25.395Z,100402.50
2023-04-12T04:20:52.116Z,100392.03
2023-04-12T04:23:18.584Z,100400.03
2023-04-12T04:25:45.404Z,100404.56
2023-04-12T04:28:11.868Z,100401.56
2023-04-12T04:30:39.060Z,100402.50
2023-04-12T04:33:07.166Z,100398.00
2023-04-12T04:35:33.855Z,100386.69
2023-04-12T04:38:02.913Z,100390.06
2023-04-12T04:40:29.361Z,100390.63
2023-04-12T04:42:55.967Z,100389.34
2023-04-12T04:45:26.535Z,100381.44
2023-04-12T04:47:53.805Z,100385.69
2023-04-12T04:50:25.120Z,100386.06
2023-04-12T04:52:51.569Z,100384.75
2023-04-12T04:55:18.325Z,100381.22
2023-04-12T04:57:44.893Z,100376.28
2023-04-12T05:00:11.848Z,100376.34
2023-04-12T05:02:40.046Z,100371.84
2023-04-12T05:05:07.663Z,100368.59
2023-04-12T05:07:34.161Z,100365.88
2023-04-12T05:10:00.597Z,100372.38
2023-04-12T05:12:27.291Z,100366.84
2023-04-12T05:15:04.795Z,100362.22
2023-04-12T05:17:37.601Z,100360.75
2023-04-12T05:20:08.600Z,100357.34
2023-04-12T05:22:35.557Z,100366.88
2023-04-12T05:25:02.774Z,100359.28
2023-04-12T05:27:30.097Z,100361.75
2023-04-12T05:29:57.684Z,100359.47
2023-04-12T05:32:27.317Z,100359.16
2023-04-12T05:34:53.777Z,100348.06
2023-04-12T05:37:20.356Z,100346.47
2023-04-12T05:39:46.835Z,100349.63
2023-04-12T05:42:13.316Z,100343.00
2023-04-12T05:44:39.791Z,100338.50
2023-04-12T05:47:06.280Z,100344.75
2023-04-12T05:49:32.880Z,100334.28
2023-04-12T05:51:59.402Z,100333.53
2023-04-12T05:54:26.188Z,100328.47
2023-04-12T05:56:55.507Z,100320.91
2023-04-12T05:59:22.767Z,100314.25
2023-04-12T06:01:49.800Z,100311.16
2023-04-12T06:04:16.779Z,100306.25
2023-04-12T06:06:43.743Z,100303.31
2023-04-12T06:09:10.644Z,100299.16
2023-04-12T06:11:39.371Z,100285.16
2023-04-12T06:14:06.036Z,100287.41
2023-04-12T06:16:32.651Z,100282.34
2023-04-12T06:18:59.480Z,100273.81
2023-04-12T06:21:26.600Z,100275.56
2023-04-12T06:23:53.071Z,100272.38
2023-04-12T06:26:19.703Z,100269.81
2023-04-12T06:28:46.172Z,100271.31
2023-04-12T06:31:12.881Z,100263.47
2023-04-12T06:33:39.655Z,100266.66
2023-04-12T06:36:07.023Z,100260.00
2023-04-12T06:38:33.890Z,100250.28
2023-04-12T06:41:00.670Z,100249.38
2023-04-12T06:43:27.138Z,100249.19
2023-04-12T06:45:53.785Z,100254.53
2023-04-12T06:48:20.647Z,100247.22
2023-04-12T06:50:47.248Z,100241.03
2023-04-12T06:53:13.857Z,100243.44
2023-04-12T06:55:41.329Z,100237.44
2023-04-12T06:58:07.867Z,100239.22
2023-04-12T07:00:34.798Z,100235.59
2023-04-12T07:03:01.982Z,100238.38
2023-04-12T07:05:28.581Z,100226.16
2023-04-12T07:07:55.404Z,100224.16
2023-04-12T07:10:21.896Z,100218.97
2023-04-12T07:12:49.471Z,100221.72
2023-04-12T07:15:16.001Z,100229.31
2023-04-12T07:17:42.611Z,100214.41
2023-04-12T07:20:09.778Z,100216.81
2023-04-12T07:22:36.267Z,100208.06
2023-04-12T07:25:03.182Z,100215.44
2023-04-12T07:27:29.619Z,100213.53
2023-04-12T07:29:58.050Z,100208.50
2023-04-12T07:32:24.698Z,100207.06
2023-04-12T07:34:51.212Z,100195.75
2023-04-12T07:37:17.983Z,100185.88
2023-04-12T07:39:44.504Z,100189.16
2023-04-12T07:42:10.968Z,100185.78
2023-04-12T07:44:38.814Z,100178.75
2023-04-12T07:47:05.676Z,100174.25
2023-04-12T07:49:32.425Z,100171.59
2023-04-12T07:51:58.911Z,100163.31
2023-04-12T07:54:29.101Z,100163.53
2023-04-12T07:57:00.044Z,100160.88
2023-04-12T07:59:26.872Z,100162.06
2023-04-12T08:01:53.602Z,100153.34
2023-04-12T08:04:20.865Z,100149.03
2023-04-12T08:06:47.630Z,100146.22
2023-04-12T08:09:14.203Z,100148.16
2023-04-12T08:11:40.829Z,100141.22
2023-04-12T08:14:07.476Z,100131.06
2023-04-12T08:16:34.744Z,100123.97
2023-04-12T08:19:01.614Z,100128.09
2023-04-12T08:21:28.238Z,100131.84
2023-04-12T08:23:54.831Z,100123.81
2023-04-12T08:26:21.642Z,100119.56
2023-04-12T08:28:48.945Z,100114.66
2023-04-12T08:31:16.405Z,100105.06
2023-04-12T08:33:43.181Z,100103.50
2023-04-12T08:36:10.294Z,100099.31
2023-04-12T08:38:45.549Z,100089.25
2023-04-12T08:41:13.270Z,100094.38
2023-04-12T08:43:44.084Z,100093.59
2023-04-12T08:46:13.134Z,100089.91
2023-04-12T08:48:40.532Z,100085.06
2023-04-12T08:51:07.411Z,100077.00
2023-04-12T08:53:34.099Z,100083.84
2023-04-12T08:56:00.704Z,100087.03
2023-04-12T08:58:27.454Z,100075.06
2023-04-12T09:00:54.631Z,100088.50
2023-04-12T09:03:21.392Z,100074.16
2023-04-12T09:05:48.244Z,100073.03
2023-04-12T09:08:14.860Z,100065.84
2023-04-12T09:10:42.700Z,100059.72
2023-04-12T09:13:09.648Z,100059.63
2023-04-12T09:15:36.278Z,100056.59
2023-04-12T09:18:08.522Z,100066.28
2023-04-12T09:20:35.918Z,100061.63
2023-04-12T09:23:17.873Z,100039.59
2023-04-12T09:25:53.096Z,100033.94
2023-04-12T09:28:27.815Z,100031.06
2023-04-12T09:30:56.558Z,100032.03
2023-04-12T09:33:39.499Z,100006.91
2023-04-12T09:36:13.472Z,100010.66
2023-04-12T09:38:42.810Z,100009.91
2023-04-12T09:41:23.674Z,100000.66
2023-04-12T09:43:53.252Z,100002.63
2023-04-12T09:46:19.848Z,99982.13
2023-04-12T09:48:52.529Z,99977.59
2023-04-12T09:51:29.605Z,99973.72
2023-04-12T09:54:02.401Z,99979.03
2023-04-12T09:56:34.100Z,99971.44
2023-04-12T09:59:03.423Z,99962.22
2023-04-12T10:01:35.771Z,99958.06
2023-04-12T10:04:03.713Z,99945.19
2023-04-12T10:06:31.564Z,99943.91
2023-04-12T10:08:59.024Z,99936.81
2023-04-12T10:11:28.081Z,99923.56
2023-04-12T10:13:57.468Z,99915.63
2023-04-12T10:16:27.151Z,99919.00
2023-04-12T10:18:55.684Z,99912.84
2023-04-12T10:21:22.848Z,99912.97
2023-04-12T10:23:49.851Z,99904.75
2023-04-12T10:26:17.227Z,99898.63
2023-04-12T10:28:48.013Z,99892.66
2023-04-12T10:31:28.104Z,99884.88
2023-04-12T10:33:55.445Z,99879.16
2023-04-12T10:37:00.904Z,99867.88
2023-04-12T10:39:41.486Z,99874.38
2023-04-12T10:42:19.106Z,99862.94
2023-04-12T10:44:46.224Z,99859.94
2023-04-12T10:47:12.817Z,99855.53
2023-04-12T10:49:40.024Z,99857.16
2023-04-12T10:52:09.452Z,99841.50
2023-04-12T10:54:36.611Z,99834.56
2023-04-12T10:57:04.367Z,99849.31
2023-04-12T10:59:56.539Z,99826.81
2023-04-12T11:02:23.435Z,99823.09
2023-04-12T11:05:05.816Z,99828.50
2023-04-12T11:07:40.918Z,99822.44
2023-04-12T11:10:19.981Z,99804.75
2023-04-12T11:12:50.661Z,99802.59
2023-04-12T11:15:18.033Z,99800.47
2023-04-12T11:17:57.145Z,99786.53
2023-04-12T11:20:27.243Z,99787.00
2023-04-12T11:22:54.018Z,99795.25
2023-04-12T11:25:20.845Z,99787.13
2023-04-12T11:27:51.774Z,99784.44
2023-04-12T11:30:19.686Z,99779.81
2023-04-12T11:32:47.543Z,99779.16
2023-04-12T11:35:20.344Z,99761.66
2023-04-12T11:37:47.232Z,99764.22
2023-04-12T11:40:14.734Z,99758.59
2023-04-12T11:42:41.525Z,99756.56
2023-04-12T11:45:16.676Z,99761.75
2023-04-12T11:47:46.132Z,99759.94
2023-04-12T11:50:13.011Z,99747.44
2023-04-12T11:52:41.133Z,99744.06
2023-04-12T11:55:10.941Z,99741.88
2023-04-12T11:57:38.632Z,99735.47
2023-04-12T12:00:06.905Z,99737.53
2023-04-12T12:02:41.120Z,99709.59
2023-04-12T12:05:12.993Z,99722.84
2023-04-12T12:07:39.690Z,99712.66
2023-04-12T12:10:06.976Z,99704.81
2023-04-12T12:12:34.281Z,99701.38
2023-04-12T12:15:02.199Z,99701.31
2023-04-12T12:17:30.275Z,99697.94
2023-04-12T12:19:57.518Z,99683.88
2023-04-12T12:22:24.125Z,99683.16
2023-04-12T12:24:57.829Z,99674.25
2023-04-12T12:27:48.574Z,99665.72
2023-04-12T12:30:20.440Z,99666.91
2023-04-12T12:32:50.681Z,99664.47
2023-04-12T12:35:17.346Z,99656.69
2023-04-12T12:37:52.578Z,99643.28
2023-04-12T12:40:31.074Z,99652.41
2023-04-12T12:42:57.844Z,99647.81
2023-04-12T12:45:26.364Z,99651.19
2023-04-12T12:47:54.897Z,99658.66
2023-04-12T12:50:28.858Z,99633.41
2023-04-12T12:52:56.295Z,99631.38
2023-04-12T12:55:24.179Z,99635.53
2023-04-12T12:58:07.309Z,99627.16
2023-04-12T13:00:35.361Z,99623.03
2023-04-12T13:03:02.385Z,99622.00
2023-04-12T13:05:29.903Z,99615.75
2023-04-12T13:07:56.408Z,99619.47
2023-04-12T13:10:23.754Z,99599.47
2023-04-12T13:12:50.531Z,99589.53
2023-04-12T13:15:22.829Z,99590.53
2023-04-12T13:17:53.738Z,99590.75
2023-04-12T13:20:21.117Z,99580.81
2023-04-12T13:22:47.739Z,99592.09
2023-04-12T13:25:14.373Z,99578.59
2023-04-12T13:27:40.992Z,99594.50
2023-04-12T13:30:08.384Z,99583.78
2023-04-12T13:32:35.825Z,99568.78
2023-04-12T13:35:03.184Z,99567.34
2023-04-12T13:37:29.882Z,99573.00
2023-04-12T13:39:56.851Z,99559.06
2023-04-12T13:42:24.415Z,99559.91
2023-04-12T13:44:51.302Z,99552.78
2023-04-12T13:47:17.987Z,99556.41
2023-04-12T13:49:44.899Z,99553.31
2023-04-12T13:52:11.997Z,99545.09
2023-04-12T13:54:41.119Z,99545.91
2023-04-12T13:57:07.938Z,99535.19
2023-04-12T13:59:34.797Z,99536.34
2023-04-12T14:02:02.120Z,99537.63
2023-04-12T14:04:29.780Z,99532.25
2023-04-12T14:06:57.484Z,99517.31
2023-04-12T14:09:29.082Z,99528.03
2023-04-12T14:11:56.386Z,99516.28
2023-04-12T14:14:23.588Z,99528.84
2023-04-12T14:16:55.786Z,99519.16
2023-04-12T14:19:22.752Z,99525.19
2023-04-12T14:21:49.738Z,99531.28
2023-04-12T14:24:18.098Z,99511.88
2023-04-12T14:26:45.288Z,99517.16
2023-04-12T14:29:12.322Z,99547.56
2023-04-12T14:31:39.397Z,99521.03
2023-04-12T14:34:06.451Z,99526.38
2023-04-12T14:36:33.431Z,99518.19
2023-04-12T14:39:01.603Z,99531.56
2023-04-12T14:41:28.352Z,99518.09
2023-04-12T14:43:55.060Z,99528.91
2023-04-12T14:46:21.985Z,99522.88
2023-04-12T14:48:49.587Z,99535.19
2023-04-12T14:51:16.059Z,99535.69
2023-04-12T14:53:43.216Z,99537.56
2023-04-12T14:56:25.489Z,99538.28
2023-04-12T14:58:55.211Z,99544.38
2023-04-12T15:01:23.537Z,99539.13
2023-04-12T15:03:51.910Z,99541.16
2023-04-12T15:06:20.486Z,99536.16
2023-04-12T15:08:49.653Z,99545.25
2023-04-12T15:11:19.661Z,99542.94
2023-04-12T15:13:46.149Z,99553.81
2023-04-12T15:16:12.738Z,99556.56
2023-04-12T15:18:41.510Z,99557.06
2023-04-12T15:21:10.377Z,99560.25
2023-04-12T15:23:37.743Z,99569.66
2023-04-12T15:26:06.541Z,99568.84
2023-04-12T15:28:33.405Z,99561.53
2023-04-12T15:31:00.987Z,99567.41
2023-04-12T15:33:28.232Z,99561.38
2023-04-12T15:35:57.745Z,99561.91
2023-04-12T15:38:24.882Z,99554.25
2023-04-12T15:40:59.134Z,99558.88
2023-04-12T15:43:26.344Z,99562.59
2023-04-12T15:45:54.702Z,99554.09
2023-04-12T15:48:24.277Z,99550.09
2023-04-12T15:50:51.755Z,99549.09
2023-04-12T15:53:23.170Z,99551.75
2023-04-12T15:55:54.592Z,99555.75
2023-04-12T15:58:26.870Z,99542.72
2023-04-12T16:00:54.032Z,99546.94
2023-04-12T16:03:23.265Z,99544.78
2023-04-12T16:05:53.578Z,99535.59
2023-04-12T16:10:48.992Z,99524.94
2023-04-12T16:13:16.240Z,99523.47
2023-04-12T16:15:42.841Z,99521.44
2023-04-12T16:18:09.895Z,99508.44
2023-04-12T16:20:37.435Z,99506.78
2023-04-12T16:23:05.104Z,99510.13
2023-04-12T16:25:32.300Z,99513.41
2023-04-12T16:28:02.353Z,99513.38
2023-04-12T16:30:32.630Z,99514.75
2023-04-12T16:32:59.347Z,99503.06
2023-04-12T16:35:27.387Z,99502.09
2023-04-12T16:37:54.456Z,99506.09
2023-04-12T16:40:21.365Z,99498.94
2023-04-12T16:42:47.803Z,99501.41
2023-04-12T16:45:15.106Z,99504.94
2023-04-12T16:47:41.959Z,99494.75
2023-04-12T16:50:09.139Z,99496.75
2023-04-12T16:52:36.978Z,99499.75
2023-04-12T16:55:04.161Z,99497.72
2023-04-12T16:57:30.809Z,99503.22
2023-04-12T16:59:57.468Z,99496.06
2023-04-12T17:02:27.513Z,99502.44
2023-04-12T17:04:54.578Z,99503.44
2023-04-12T17:07:21.761Z,99493.78
2023-04-12T17:09:48.198Z,99487.59
2023-04-12T17:12:14.868Z,99483.44
2023-04-12T17:14:41.335Z,99477.78
2023-04-12T17:17:07.840Z,99478.28
2023-04-12T17:19:34.273Z,99472.97
2023-04-12T17:22:01.032Z,99465.28
2023-04-12T17:24:29.018Z,99466.13
2023-04-12T17:26:55.882Z,99464.63
2023-04-12T17:29:22.486Z,99464.44
2023-04-12T17:31:50.701Z,99465.31
2023-04-12T17:34:19.785Z,99467.59
2023-04-12T17:36:46.817Z,99461.28
2023-04-12T17:39:13.420Z,99462.78
2023-04-12T17:41:40.022Z,99455.44
2023-04-12T17:44:06.812Z,99449.78
2023-04-12T17:46:34.958Z,99444.47
2023-04-12T17:49:04.151Z,99443.13
2023-04-12T17:51:32.522Z,99441.81
2023-04-12T17:54:00.399Z,99443.47
2023-04-12T17:56:26.941Z,99450.94
2023-04-12T17:58:53.535Z,99458.97
2023-04-12T18:01:20.131Z,99464.78
2023-04-12T18:03:47.623Z,99452.47
2023-04-12T18:06:14.954Z,99449.31
2023-04-12T18:08:41.392Z,99450.94
2023-04-12T18:11:08.165Z,99458.47
2023-04-12T18:13:34.660Z,99456.81
2023-04-12T18:16:01.539Z,99448.59
2023-04-12T18:18:28.246Z,99452.28
2023-04-12T18:20:54.764Z,99442.63
2023-04-12T18:23:21.561Z,99444.47
2023-04-12T18:25:48.164Z,99442.63
2023-04-12T18:28:15.055Z,99442.78
2023-04-12T18:30:41.590Z,99446.81
2023-04-12T18:33:08.391Z,99444.97
2023-04-12T18:35:35.070Z,99444.81
2023-04-12T18:38:01.831Z,99449.13
2023-04-12T18:40:28.617Z,99444.81
2023-04-12T18:42:55.254Z,99450.13
2023-04-12T18:45:22.695Z,99450.31
2023-04-12T18:47:51.385Z,99447.78
2023-04-12T18:50:19.350Z,99445.81
2023-04-12T18:52:45.890Z,99446.28
2023-04-12T18:55:12.390Z,99432.47
2023-04-12T18:57:38.977Z,99438.97
2023-04-12T19:00:13.565Z,99445.94
2023-04-12T19:02:41.049Z,99444.59
2023-04-12T19:05:10.206Z,99446.44
2023-04-12T19:07:37.284Z,99447.78
2023-04-12T19:10:04.248Z,99452.28
2023-04-12T19:12:30.767Z,99453.09
2023-04-12T19:14:57.237Z,99432.16
2023-04-12T19:17:24.782Z,99439.78
2023-04-12T19:19:51.360Z,99439.28
2023-04-12T19:22:17.829Z,99425.13
2023-04-12T19:24:44.447Z,99430.78
2023-04-12T19:27:10.920Z,99422.47
2023-04-12T19:29:37.397Z,99419.94
2023-04-12T19:32:06.736Z,99429.44
2023-04-12T19:34:34.204Z,99427.38
2023-04-12T19:37:00.689Z,99422.19
2023-04-12T19:39:27.201Z,99420.22
2023-04-12T19:41:53.657Z,99412.22
2023-04-12T19:44:20.315Z,99419.38
2023-04-12T19:46:46.995Z,99412.00
2023-04-12T19:49:13.790Z,99409.88
2023-04-12T19:51:40.299Z,99403.91
2023-04-12T19:54:09.877Z,99412.34
2023-04-12T19:56:37.647Z,99400.75
2023-04-12T19:59:06.695Z,99397.94
2023-04-12T20:01:47.949Z,99398.75
2023-04-12T20:04:16.821Z,99397.25
2023-04-12T20:06:43.842Z,99396.63
2023-04-12T20:09:12.756Z,99388.66
2023-04-12T20:11:40.944Z,99390.16
2023-04-12T20:14:10.484Z,99381.84
2023-04-12T20:16:38.315Z,99379.16
2023-04-12T20:19:05.281Z,99371.16
2023-04-12T20:21:34.036Z,99379.47
2023-04-12T20:24:01.988Z,99376.81
2023-04-12T20:26:31.610Z,99369.69
2023-04-12T20:28:59.772Z,99358.53
2023-04-12T20:31:27.092Z,99368.00
2023-04-12T20:33:54.999Z,99355.69
2023-04-12T20:36:22.496Z,99344.22
2023-04-12T20:38:52.965Z,99350.84
2023-04-12T20:41:20.060Z,99350.19
2023-04-12T20:43:48.091Z,99352.88
2023-04-12T20:46:18.984Z,99352.88
2023-04-12T20:48:47.673Z,99355.00
2023-04-12T20:51:16.010Z,99352.66
2023-04-12T20:53:48.600Z,99353.50
2023-04-12T20:56:18.707Z,99348.00
2023-04-12T20:58:47.257Z,99350.47
2023-04-12T21:01:15.163Z,99348.13
2023-04-12T21:03:42.576Z,99353.09
2023-04-12T21:06:10.671Z,99351.56
2023-04-12T21:08:38.032Z,99350.91
2023-04-12T21:11:04.790Z,99350.38
2023-04-12T21:13:31.231Z,99355.88
2023-04-12T21:15:58.724Z,99340.19
2023-04-12T21:21:00.826Z,99338.97
2023-04-12T21:23:30.882Z,99343.84
2023-04-12T21:25:57.658Z,99337.06
2023-04-12T21:28:24.175Z,99336.25
2023-04-12T21:30:55.157Z,99337.88
2023-04-12T21:33:26.235Z,99330.56
2023-04-12T21:35:54.667Z,99337.41
2023-04-12T21:38:22.621Z,99327.69
2023-04-12T21:40:49.504Z,99329.84
2023-04-12T21:43:16.241Z,99327.03
2023-04-12T21:45:42.728Z,99328.69
2023-04-12T21:48:09.245Z,99332.41
2023-04-12T21:50:35.992Z,99328.06
2023-04-12T21:53:02.447Z,99321.38
2023-04-12T21:55:28.911Z,99321.06
2023-04-12T21:57:55.305Z,99319.22
2023-04-12T22:00:23.681Z,99321.94
2023-04-12T22:02:50.613Z,99320.56
2023-04-12T22:05:17.150Z,99327.69
2023-04-12T22:07:43.597Z,99320.88
2023-04-12T22:10:12.121Z,99306.09
2023-04-12T22:12:39.310Z,99307.22
2023-04-12T22:15:06.154Z,99319.94
2023-04-12T22:17:33.301Z,99309.25
2023-04-12T22:19:59.897Z,99315.91
2023-04-12T22:22:31.673Z,99312.22
2023-04-12T22:24:58.163Z,99322.75
2023-04-12T22:27:26.454Z,99334.66
2023-04-12T22:29:53.523Z,99336.38
2023-04-12T22:32:20.051Z,99340.56
2023-04-12T22:34:48.328Z,99337.31
2023-04-12T22:37:16.685Z,99341.59
2023-04-12T22:39:43.157Z,99354.19
2023-04-12T22:42:09.553Z,99351.75
2023-04-12T22:44:38.388Z,99353.03
2023-04-12T22:47:07.434Z,99340.84
2023-04-12T22:49:44.449Z,99336.19
2023-04-12T22:52:10.981Z,99325.72
2023-04-12T22:54:38.798Z,99324.91
2023-04-12T22:57:06.188Z,99321.38
2023-04-12T22:59:32.934Z,99324.91
2023-04-12T23:01:59.604Z,99339.84
2023-04-12T23:04:26.123Z,99337.69
2023-04-12T23:06:57.119Z,99325.88
2023-04-12T23:09:23.676Z,99319.94
2023-04-12T23:11:51.524Z,99328.13
2023-04-12T23:14:18.003Z,99326.16
2023-04-12T23:16:46.073Z,99323.97
2023-04-12T23:19:16.557Z,99320.44
2023-04-12T23:21:43.825Z,99319.09
2023-04-12T23:24:16.256Z,99319.41
2023-04-12T23:26:45.238Z,99318.09
2023-04-12T23:29:12.545Z,99302.97
2023-04-12T23:31:40.836Z,99314.47
2023-04-12T23:34:07.356Z,99318.97
2023-04-12T23:36:33.887Z,99316.84
2023-04-12T23:39:00.521Z,99320.31
2023-04-12T23:41:27.741Z,99320.63
2023-04-12T23:43:54.231Z,99342.91
2023-04-12T23:46:22.228Z,99339.03
2023-04-12T23:48:49.367Z,99335.38
2023-04-12T23:51:16.622Z,99320.63
2023-04-12T23:53:43.126Z,99305.50
2023-04-12T23:56:10.048Z,99306.34
2023-04-12T23:58:36.701Z,99310.63
